Meath Environmental Platform

Observations for Trim Patrick St

Time AQI Temp °C Hum % Pres Pa CO μg/m³ H₂S μg/m³ NO μg/m³ NO₂ μg/m³ O₃ μg/m³ SO₂ μg/m³ PM1 μg/m³ PM2.5 μg/m³ PM10 μg/m³
Friday 31 July 2026
19:09 3 21.5 44 68,749 0 12.22 1.45 20.55 70.28 4.96 4.57 9.92 10.92
19:08 3 21.5 43 68,739 0 12.51 1.45 18.51 71.17 5 3.71 9.16 10.08
19:07 3 21.6 43 68,728 0 13.03 1.47 18.49 72.01 5.78 2.86 9.97 10.96
19:06 3 21.6 43 68,739 0 12.79 1.46 18.49 73.33 5.19 4.57 11.53 12.68
19:05 3 21.7 43 68,757 0 12.11 1.47 16.68 75.09 5.47 5.43 12.31 13.54
19:04 3 21.7 43 68,780 0 12.98 1.46 18.16 71.71 5.63 9.71 18.54 20.39
19:03 3 21.8 43 68,780 0 10.23 1.48 15.22 70.46 4.9 11.43 20.12 22.14
19:02 3 21.8 42 68,780 0 11.23 1.48 14.95 73.91 5.45 12.29 21.7 23.87
19:01 3 21.8 42 68,776 0 13.24 1.49 15.55 76.12 5.91 19.14 31.87 36.47
19:00 3 21.9 42 68,770 0 14 1.49 17.84 74.64 6.11 20 31.9 34.59
18:58 3 21.9 42 68,792 0 10.04 1.5 13.59 69.27 4.77 19.14 31.14 34.64
18:57 3 22 42 68,798 0 11.31 1.52 16.03 71.08 5.72 19.14 31.14 36.57
18:56 3 22 42 68,798 0 9.25 1.51 13.74 72.28 5.15 19.14 31.16 34.66
18:55 3 22.1 42 68,802 0 11.12 1.5 11.17 74.27 5.93 17.43 27.25 29.81
18:54 3 22.1 41 68,808 0 11.17 1.51 20.12 70.7 5.75 17.43 31.96 33.74
18:52 3 22.2 41 68,780 0 8.08 1.52 11.84 68.65 5.03 13.14 22.6 23.07
18:51 3 22.2 41 68,778 0 11.38 1.52 23.77 63.31 5.56 13.14 24.16 26.58
18:50 3 22.3 41 68,804 0 11.01 1.53 17.98 75.8 6.1 11.43 21.06 23.17
18:49 3 22.4 41 68,833 0 9.97 1.53 9.35 78.93 5.87 14.86 28.91 30.95
18:48 3 22.4 41 68,815 0 11.69 1.52 12.77 79.01 6.32 12.29 22.62 23.1